createdAt,value
2022-12-11T00:00:12.029Z,99.33
2022-12-11T00:02:38.894Z,99.66
2022-12-11T00:05:06.021Z,99.49
2022-12-11T00:07:32.920Z,98.95
2022-12-11T00:09:59.849Z,99.27
2022-12-11T00:12:27.644Z,99.19
2022-12-11T00:14:54.481Z,99.26
2022-12-11T00:17:21.269Z,99.33
2022-12-11T00:19:48.179Z,99.24
2022-12-11T00:22:15.503Z,99.89
2022-12-11T00:24:42.305Z,99.49
2022-12-11T00:27:09.115Z,99.67
2022-12-11T00:29:36.483Z,99.87
2022-12-11T00:32:03.380Z,99.79
2022-12-11T00:34:30.373Z,98.70
2022-12-11T00:36:58.211Z,99.10
2022-12-11T00:39:25.133Z,98.32
2022-12-11T00:41:51.974Z,97.80
2022-12-11T00:44:18.787Z,98.03
2022-12-11T00:46:45.608Z,96.38
2022-12-11T00:49:12.425Z,96.45
2022-12-11T00:51:39.995Z,96.14
2022-12-11T00:54:06.809Z,95.88
2022-12-11T00:56:33.878Z,95.15
2022-12-11T00:59:00.653Z,95.29
2022-12-11T01:01:27.562Z,95.10
2022-12-11T01:03:54.526Z,94.79
2022-12-11T01:06:24.926Z,94.95
2022-12-11T01:08:52.255Z,95.35
2022-12-11T01:11:19.153Z,94.28
2022-12-11T01:13:46.065Z,94.83
2022-12-11T01:16:17.110Z,94.20
2022-12-11T01:18:44.336Z,94.53
2022-12-11T01:21:13.554Z,94.35
2022-12-11T01:23:40.685Z,94.41
2022-12-11T01:26:10.295Z,94.17
2022-12-11T01:28:37.969Z,94.12
2022-12-11T01:31:11.663Z,94.47
2022-12-11T01:33:39.356Z,95.16
2022-12-11T01:36:32.416Z,95.00
2022-12-11T01:38:59.177Z,96.04
2022-12-11T01:41:26.065Z,94.53
2022-12-11T01:43:56.876Z,93.74
2022-12-11T01:46:24.361Z,92.73
2022-12-11T01:48:52.087Z,92.97
2022-12-11T01:51:18.987Z,92.52
2022-12-11T01:53:54.830Z,92.03
2022-12-11T01:56:21.853Z,92.08
2022-12-11T01:58:56.307Z,91.01
2022-12-11T02:01:33.058Z,90.48
2022-12-11T02:04:01.291Z,89.83
2022-12-11T02:06:35.839Z,90.35
2022-12-11T02:09:05.555Z,90.48
2022-12-11T02:11:47.932Z,90.23
2022-12-11T02:14:27.933Z,88.81
2022-12-11T02:17:06.762Z,89.63
2022-12-11T02:20:10.871Z,89.59
2022-12-11T02:22:54.120Z,88.26
2022-12-11T02:25:51.960Z,87.04
2022-12-11T02:28:30.330Z,87.34
2022-12-11T02:31:38.882Z,87.42
2022-12-11T02:34:28.807Z,87.52
2022-12-11T02:37:00.801Z,88.57
2022-12-11T02:39:29.530Z,89.25
2022-12-11T02:41:56.993Z,88.84
2022-12-11T02:44:28.386Z,88.40
2022-12-11T02:46:56.584Z,88.64
2022-12-11T02:49:26.196Z,89.23
2022-12-11T02:51:54.925Z,87.78
2022-12-11T02:54:27.467Z,88.53
2022-12-11T02:57:04.042Z,87.86
2022-12-11T02:59:38.170Z,87.70
2022-12-11T03:02:05.802Z,86.97
2022-12-11T03:04:35.723Z,86.99
2022-12-11T03:07:14.176Z,86.36
2022-12-11T03:09:44.232Z,86.34
2022-12-11T03:12:19.156Z,85.98
2022-12-11T03:14:46.735Z,85.17
2022-12-11T03:17:24.144Z,83.13
2022-12-11T03:20:05.826Z,81.14
2022-12-11T03:22:41.435Z,82.24
2022-12-11T03:25:18.006Z,79.27
2022-12-11T03:27:50.676Z,78.80
2022-12-11T03:30:20.901Z,77.54
2022-12-11T03:32:56.235Z,78.43
2022-12-11T03:35:34.938Z,77.21
2022-12-11T03:38:06.997Z,77.67
2022-12-11T03:40:37.018Z,78.08
2022-12-11T03:43:06.729Z,77.48
2022-12-11T03:45:34.928Z,78.27
2022-12-11T03:48:03.354Z,78.68
2022-12-11T03:50:34.168Z,78.13
2022-12-11T03:53:03.411Z,79.36
2022-12-11T03:55:33.034Z,78.22
2022-12-11T03:57:59.802Z,78.54
2022-12-11T04:00:26.772Z,78.84
2022-12-11T04:02:53.675Z,79.68
2022-12-11T04:05:20.520Z,80.39
2022-12-11T04:07:47.316Z,79.64
2022-12-11T04:10:14.220Z,80.45
2022-12-11T04:12:40.982Z,81.34
2022-12-11T04:15:08.157Z,82.25
2022-12-11T04:17:37.042Z,82.27
2022-12-11T04:20:06.363Z,82.84
2022-12-11T04:22:33.193Z,82.97
2022-12-11T04:25:01.361Z,84.17
2022-12-11T04:27:28.331Z,84.72
2022-12-11T04:29:55.164Z,85.15
2022-12-11T04:32:21.892Z,86.53
2022-12-11T04:34:48.919Z,86.27
2022-12-11T04:37:15.661Z,87.40
2022-12-11T04:39:42.485Z,87.19
2022-12-11T04:42:09.275Z,92.36
2022-12-11T04:44:36.003Z,87.26
2022-12-11T04:47:02.946Z,88.34
2022-12-11T04:49:29.722Z,88.03
2022-12-11T04:51:56.569Z,87.35
2022-12-11T04:54:23.395Z,87.86
2022-12-11T04:56:50.235Z,88.36
2022-12-11T04:59:17.020Z,88.54
2022-12-11T05:01:43.867Z,88.38
2022-12-11T05:04:10.625Z,88.74
2022-12-11T05:06:37.394Z,90.28
2022-12-11T05:09:04.282Z,91.55
2022-12-11T05:11:31.247Z,92.37
2022-12-11T05:13:58.036Z,93.01
2022-12-11T05:16:25.044Z,93.45
2022-12-11T05:18:51.829Z,94.65
2022-12-11T05:21:18.619Z,94.98
2022-12-11T05:23:45.430Z,95.35
2022-12-11T05:26:17.327Z,95.35
2022-12-11T05:28:44.801Z,95.10
2022-12-11T05:31:17.743Z,94.46
2022-12-11T05:33:45.866Z,94.91
2022-12-11T05:36:16.543Z,95.37
2022-12-11T05:38:43.495Z,96.06
2022-12-11T05:41:13.858Z,96.19
2022-12-11T05:43:41.050Z,95.05
2022-12-11T05:46:10.441Z,94.37
2022-12-11T05:48:38.366Z,94.99
2022-12-11T05:51:06.781Z,94.80
2022-12-11T05:53:34.030Z,95.03
2022-12-11T05:56:06.120Z,95.45
2022-12-11T05:58:34.529Z,95.35
2022-12-11T06:01:02.051Z,94.77
2022-12-11T06:03:28.887Z,94.64
2022-12-11T06:05:55.630Z,94.65
2022-12-11T06:08:22.705Z,95.07
2022-12-11T06:10:50.541Z,95.29
2022-12-11T06:13:17.476Z,94.92
2022-12-11T06:15:44.320Z,93.56
2022-12-11T06:18:11.297Z,93.50
2022-12-11T06:20:38.563Z,93.60
2022-12-11T06:23:05.291Z,92.13
2022-12-11T06:25:32.345Z,92.25
2022-12-11T06:27:59.187Z,91.83
2022-12-11T06:30:39.225Z,90.30
2022-12-11T06:33:07.008Z,90.60
2022-12-11T06:35:40.064Z,88.65
2022-12-11T06:38:09.728Z,89.64
2022-12-11T06:40:36.465Z,89.21
2022-12-11T06:43:03.236Z,87.69
2022-12-11T06:45:30.232Z,87.40
2022-12-11T06:47:57.040Z,87.30
2022-12-11T06:50:24.081Z,85.52
2022-12-11T06:52:50.881Z,85.90
2022-12-11T06:55:17.649Z,84.26
2022-12-11T06:57:44.608Z,84.13
2022-12-11T07:00:12.042Z,84.56
2022-12-11T07:02:38.832Z,84.04
2022-12-11T07:05:06.018Z,83.96
2022-12-11T07:07:33.157Z,81.91
2022-12-11T07:10:07.309Z,81.97
2022-12-11T07:12:35.512Z,82.27
2022-12-11T07:15:02.462Z,81.19
2022-12-11T07:17:29.819Z,80.98
2022-12-11T07:19:56.670Z,81.58
2022-12-11T07:22:23.693Z,81.34
2022-12-11T07:24:50.531Z,81.26
2022-12-11T07:27:17.360Z,80.92
2022-12-11T07:29:44.183Z,80.81
2022-12-11T07:32:11.068Z,80.00
2022-12-11T07:34:38.262Z,80.75
2022-12-11T07:37:05.205Z,81.38
2022-12-11T07:39:31.977Z,80.54
2022-12-11T07:41:58.814Z,79.42
2022-12-11T07:44:25.605Z,79.27
2022-12-11T07:46:52.507Z,80.20
2022-12-11T07:49:19.297Z,81.06
2022-12-11T07:51:46.094Z,80.55
2022-12-11T07:54:14.516Z,79.84
2022-12-11T07:56:43.890Z,79.41
2022-12-11T07:59:11.528Z,79.63
2022-12-11T08:01:39.467Z,78.49
2022-12-11T08:04:08.037Z,79.61
2022-12-11T08:06:37.090Z,79.21
2022-12-11T08:09:07.251Z,77.84
2022-12-11T08:11:34.334Z,78.44
2022-12-11T08:14:01.959Z,78.36
2022-12-11T08:16:29.574Z,78.82
2022-12-11T08:18:56.448Z,77.94
2022-12-11T08:21:26.293Z,78.72
2022-12-11T08:23:54.188Z,79.00
2022-12-11T08:26:25.701Z,79.15
2022-12-11T08:28:56.413Z,79.22
2022-12-11T08:31:25.287Z,78.61
2022-12-11T08:33:52.608Z,78.63
2022-12-11T08:36:21.763Z,77.67
2022-12-11T08:38:49.992Z,78.00
2022-12-11T08:41:20.104Z,77.65
2022-12-11T08:43:47.362Z,78.87
2022-12-11T08:46:15.170Z,78.73
2022-12-11T08:48:43.186Z,78.43
2022-12-11T08:51:15.136Z,79.05
2022-12-11T08:53:41.985Z,78.40
2022-12-11T08:56:14.266Z,78.11
2022-12-11T08:58:41.166Z,77.81
2022-12-11T09:01:10.397Z,76.07
2022-12-11T09:03:38.639Z,77.27
2022-12-11T09:06:10.587Z,77.26
2022-12-11T09:08:37.877Z,76.43
2022-12-11T09:11:07.548Z,74.72
2022-12-11T09:13:34.614Z,75.23
2022-12-11T09:16:08.011Z,75.96
2022-12-11T09:18:35.473Z,77.06
2022-12-11T09:21:04.878Z,76.71
2022-12-11T09:23:32.420Z,77.05
2022-12-11T09:25:59.740Z,75.71
2022-12-11T09:28:26.581Z,75.42
2022-12-11T09:30:53.427Z,76.67
2022-12-11T09:33:20.339Z,76.26
2022-12-11T09:35:56.441Z,76.66
2022-12-11T09:38:23.253Z,76.94
2022-12-11T09:40:49.972Z,76.13
2022-12-11T09:43:31.875Z,76.37
2022-12-11T09:46:03.159Z,76.29
2022-12-11T09:48:33.866Z,76.93
2022-12-11T09:51:10.515Z,76.08
2022-12-11T09:53:37.432Z,76.51
2022-12-11T09:56:09.989Z,76.20
2022-12-11T09:58:48.671Z,74.69
2022-12-11T10:01:26.295Z,75.47
2022-12-11T10:04:07.413Z,78.00
2022-12-11T10:07:02.975Z,78.79
2022-12-11T10:10:02.380Z,76.20
2022-12-11T10:13:06.354Z,72.22
2022-12-11T10:15:57.497Z,71.69
2022-12-11T10:18:26.293Z,72.42
2022-12-11T10:20:54.275Z,70.99
2022-12-11T10:23:52.358Z,72.17
2022-12-11T10:26:22.502Z,71.97
2022-12-11T10:28:49.931Z,70.58
2022-12-11T10:31:20.850Z,71.46
2022-12-11T10:34:00.996Z,69.12
2022-12-11T10:36:35.349Z,69.07
2022-12-11T10:39:03.607Z,69.76
2022-12-11T10:41:46.192Z,69.04
2022-12-11T10:44:27.418Z,68.58
2022-12-11T10:47:03.139Z,69.57
2022-12-11T10:49:32.084Z,67.52
2022-12-11T10:51:59.909Z,68.67
2022-12-11T10:54:40.440Z,68.53
2022-12-11T10:57:10.320Z,69.33
2022-12-11T10:59:39.270Z,67.99
2022-12-11T11:02:16.667Z,69.83
2022-12-11T11:04:44.764Z,69.49
2022-12-11T11:07:19.820Z,69.25
2022-12-11T11:09:46.943Z,68.50
2022-12-11T11:12:23.345Z,68.65
2022-12-11T11:15:15.144Z,68.94
2022-12-11T11:17:55.795Z,69.07
2022-12-11T11:20:28.724Z,68.17
2022-12-11T11:23:04.643Z,67.19
2022-12-11T11:25:33.412Z,68.96
2022-12-11T11:28:06.659Z,68.36
2022-12-11T11:30:41.975Z,68.19
2022-12-11T11:33:19.959Z,68.06
2022-12-11T11:36:26.535Z,69.12
2022-12-11T11:39:28.615Z,69.36
2022-12-11T11:42:24.294Z,69.24
2022-12-11T11:44:57.468Z,68.50
2022-12-11T11:47:28.617Z,69.91
2022-12-11T11:50:14.944Z,69.11
2022-12-11T11:53:01.420Z,70.09
2022-12-11T11:55:44.294Z,70.53
2022-12-11T11:58:22.027Z,70.56
2022-12-11T12:00:50.515Z,70.42
2022-12-11T12:03:21.495Z,69.84
2022-12-11T12:06:02.847Z,69.52
2022-12-11T12:08:45.168Z,68.90
2022-12-11T12:11:20.196Z,68.48
2022-12-11T12:14:50.673Z,68.35
2022-12-11T12:17:21.702Z,69.75
2022-12-11T12:20:09.591Z,68.38
2022-12-11T12:22:36.521Z,69.54
2022-12-11T12:25:30.383Z,68.25
2022-12-11T12:28:18.322Z,69.81
2022-12-11T12:31:10.210Z,70.42
2022-12-11T12:33:46.921Z,67.25
2022-12-11T12:36:35.010Z,68.87
2022-12-11T12:39:13.979Z,68.02
2022-12-11T12:41:52.986Z,66.85
2022-12-11T12:44:24.660Z,66.37
2022-12-11T12:47:04.109Z,66.37
2022-12-11T12:49:37.241Z,66.20
2022-12-11T12:52:06.680Z,65.88
2022-12-11T12:54:35.984Z,67.07
2022-12-11T12:57:05.191Z,65.32
2022-12-11T12:59:32.219Z,65.73
2022-12-11T13:02:02.714Z,64.60
2022-12-11T13:04:59.182Z,65.42
2022-12-11T13:07:30.395Z,64.76
2022-12-11T13:10:01.285Z,65.04
2022-12-11T13:12:47.869Z,66.34
2022-12-11T13:15:32.468Z,69.35
2022-12-11T13:18:01.137Z,71.51
2022-12-11T13:20:33.696Z,72.22
2022-12-11T13:23:00.718Z,73.30
2022-12-11T13:25:31.236Z,75.47
2022-12-11T13:28:21.675Z,76.82
2022-12-11T13:31:21.241Z,78.68
2022-12-11T13:33:58.509Z,78.81
2022-12-11T13:36:33.957Z,78.63
2022-12-11T13:39:16.449Z,79.26
2022-12-11T13:41:48.189Z,79.29
2022-12-11T13:44:28.520Z,79.33
2022-12-11T13:46:59.045Z,79.59
2022-12-11T13:49:32.751Z,79.22
2022-12-11T13:52:01.501Z,79.49
2022-12-11T13:54:30.238Z,80.17
2022-12-11T13:57:07.528Z,80.14
2022-12-11T13:59:37.360Z,78.49
2022-12-11T14:02:15.511Z,79.30
2022-12-11T14:04:43.240Z,78.20
2022-12-11T14:07:11.828Z,79.13
2022-12-11T14:09:44.366Z,79.64
2022-12-11T14:12:18.400Z,79.34
2022-12-11T14:14:57.096Z,78.80
2022-12-11T14:17:27.121Z,79.30
2022-12-11T14:19:56.141Z,79.06
2022-12-11T14:22:26.080Z,78.96
2022-12-11T14:24:59.085Z,79.35
2022-12-11T14:27:27.664Z,78.60
2022-12-11T14:29:55.114Z,78.54
2022-12-11T14:32:33.000Z,79.54
2022-12-11T14:35:02.658Z,79.72
2022-12-11T14:37:29.760Z,79.88
2022-12-11T14:40:04.806Z,79.80
2022-12-11T14:42:37.054Z,79.40
2022-12-11T14:45:21.414Z,79.98
2022-12-11T14:47:49.056Z,78.90
2022-12-11T14:50:21.417Z,79.95
2022-12-11T14:52:53.514Z,79.10
2022-12-11T14:55:25.245Z,79.20
2022-12-11T14:57:57.213Z,79.07
2022-12-11T15:00:30.693Z,79.69
2022-12-11T15:03:22.314Z,78.97
2022-12-11T15:05:58.998Z,78.85
2022-12-11T15:08:32.314Z,79.91
2022-12-11T15:11:17.077Z,80.48
2022-12-11T15:13:54.981Z,80.49
2022-12-11T15:16:24.381Z,80.45
2022-12-11T15:18:53.637Z,80.97
2022-12-11T15:21:29.740Z,80.78
2022-12-11T15:23:59.193Z,81.16
2022-12-11T15:26:38.322Z,80.78
2022-12-11T15:29:23.896Z,81.05
2022-12-11T15:32:02.464Z,80.98
2022-12-11T15:34:35.333Z,80.41
2022-12-11T15:37:02.448Z,81.40
2022-12-11T15:39:29.273Z,80.63
2022-12-11T15:41:56.535Z,81.01
2022-12-11T15:44:23.494Z,80.66
2022-12-11T15:46:51.955Z,80.53
2022-12-11T15:49:18.891Z,81.59
2022-12-11T15:51:46.493Z,81.17
2022-12-11T15:54:13.336Z,81.82
2022-12-11T15:56:40.469Z,82.69
2022-12-11T15:59:07.856Z,82.99
2022-12-11T16:01:35.169Z,83.22
2022-12-11T16:04:05.074Z,83.87
2022-12-11T16:06:32.739Z,83.96
2022-12-11T16:08:59.574Z,84.18
2022-12-11T16:11:26.880Z,84.03
2022-12-11T16:13:54.138Z,83.30
2022-12-11T16:16:21.186Z,83.98
2022-12-11T16:18:50.989Z,83.65
2022-12-11T16:21:21.376Z,84.05
2022-12-11T16:23:48.857Z,83.24
2022-12-11T16:26:15.943Z,83.62
2022-12-11T16:28:44.927Z,83.18
2022-12-11T16:31:13.553Z,82.40
2022-12-11T16:33:42.341Z,81.40
2022-12-11T16:36:17.858Z,81.59
2022-12-11T16:38:52.937Z,80.82
2022-12-11T16:41:21.471Z,80.87
2022-12-11T16:43:49.232Z,80.59
2022-12-11T16:46:20.759Z,81.32
2022-12-11T16:48:48.499Z,81.36
2022-12-11T16:51:16.867Z,80.47
2022-12-11T16:53:44.486Z,80.12
2022-12-11T16:56:12.037Z,80.17
2022-12-11T16:58:39.354Z,79.63
2022-12-11T17:01:11.577Z,80.54
2022-12-11T17:03:39.766Z,80.23
2022-12-11T17:06:07.926Z,80.89
2022-12-11T17:08:35.084Z,80.70
2022-12-11T17:11:05.726Z,80.35
2022-12-11T17:13:35.991Z,81.40
2022-12-11T17:16:12.576Z,82.01
2022-12-11T17:18:40.578Z,81.98
2022-12-11T17:21:11.687Z,82.06
2022-12-11T17:23:39.687Z,82.95
2022-12-11T17:26:09.706Z,83.61
2022-12-11T17:28:38.727Z,84.01
2022-12-11T17:31:08.562Z,84.32
2022-12-11T17:33:36.736Z,84.76
2022-12-11T17:36:06.016Z,84.97
2022-12-11T17:38:33.715Z,84.85
2022-12-11T17:41:02.471Z,85.33
2022-12-11T17:43:29.779Z,85.63
2022-12-11T17:45:57.778Z,86.15
2022-12-11T17:48:24.715Z,85.85
2022-12-11T17:50:52.962Z,85.76
2022-12-11T17:53:21.622Z,86.87
2022-12-11T17:55:49.983Z,86.05
2022-12-11T17:58:19.314Z,87.19
2022-12-11T18:00:50.926Z,87.54
2022-12-11T18:03:18.325Z,87.04
2022-12-11T18:05:48.744Z,87.73
2022-12-11T18:08:24.565Z,88.62
2022-12-11T18:10:53.598Z,89.39
2022-12-11T18:13:22.164Z,89.96
2022-12-11T18:16:05.447Z,90.68
2022-12-11T18:18:33.039Z,91.21
2022-12-11T18:21:01.063Z,91.26
2022-12-11T18:26:12.216Z,91.37
2022-12-11T18:28:39.405Z,91.46
2022-12-11T18:31:08.579Z,91.25
2022-12-11T18:33:40.648Z,90.61
2022-12-11T18:36:09.505Z,90.65
2022-12-11T18:38:38.867Z,91.07
2022-12-11T18:41:08.275Z,91.02
2022-12-11T18:43:35.666Z,91.66
2022-12-11T18:46:08.407Z,91.38
2022-12-11T18:48:37.360Z,90.64
2022-12-11T18:51:14.421Z,90.89
2022-12-11T18:53:42.343Z,90.66
2022-12-11T18:56:16.625Z,90.40
2022-12-11T18:58:46.772Z,90.24
2022-12-11T19:01:27.317Z,90.41
2022-12-11T19:04:02.047Z,90.03
2022-12-11T19:06:31.609Z,90.39
2022-12-11T19:09:00.124Z,90.33
2022-12-11T19:11:30.505Z,90.46
2022-12-11T19:13:59.470Z,88.90
2022-12-11T19:16:31.641Z,89.57
2022-12-11T19:19:03.663Z,89.76
2022-12-11T19:21:31.458Z,89.84
2022-12-11T19:23:59.189Z,88.82
2022-12-11T19:26:27.232Z,89.08
2022-12-11T19:28:55.018Z,88.35
2022-12-11T19:31:23.916Z,88.22
2022-12-11T19:33:51.882Z,87.99
2022-12-11T19:36:22.516Z,86.99
2022-12-11T19:38:51.626Z,86.47
2022-12-11T19:41:24.946Z,87.26
2022-12-11T19:43:55.514Z,87.76
2022-12-11T19:46:26.139Z,86.80
2022-12-11T19:48:55.305Z,87.21
2022-12-11T19:51:26.779Z,85.56
2022-12-11T19:53:55.112Z,85.60
2022-12-11T19:56:22.927Z,85.32
2022-12-11T19:58:54.222Z,84.83
2022-12-11T20:01:26.663Z,84.20
2022-12-11T20:03:56.120Z,84.85
2022-12-11T20:06:27.498Z,84.77
2022-12-11T20:08:56.931Z,83.43
2022-12-11T20:11:26.033Z,83.12
2022-12-11T20:13:53.813Z,82.89
2022-12-11T20:16:46.175Z,83.74
2022-12-11T20:19:14.942Z,83.27
2022-12-11T20:21:42.507Z,83.22
2022-12-11T20:24:10.854Z,82.23
2022-12-11T20:26:38.975Z,83.46
2022-12-11T20:29:08.758Z,82.78
2022-12-11T20:31:37.809Z,81.84
2022-12-11T20:34:06.544Z,82.13
2022-12-11T20:36:34.207Z,82.10
2022-12-11T20:39:02.028Z,82.18
2022-12-11T20:41:29.784Z,81.38
2022-12-11T20:44:00.013Z,81.56
2022-12-11T20:46:28.171Z,82.05
2022-12-11T20:48:57.731Z,82.72
2022-12-11T20:51:26.456Z,82.27
2022-12-11T20:53:56.243Z,81.59
2022-12-11T20:56:25.407Z,81.79
2022-12-11T20:58:56.709Z,81.95
2022-12-11T21:01:29.701Z,81.11
2022-12-11T21:03:58.681Z,81.66
2022-12-11T21:06:27.488Z,82.14
2022-12-11T21:08:55.181Z,82.08
2022-12-11T21:11:22.710Z,81.81
2022-12-11T21:13:51.475Z,82.30
2022-12-11T21:16:19.916Z,80.99
2022-12-11T21:18:47.769Z,82.26
2022-12-11T21:21:15.952Z,81.29
2022-12-11T21:23:43.379Z,81.55
2022-12-11T21:26:10.515Z,80.98
2022-12-11T21:28:38.937Z,81.48
2022-12-11T21:31:09.166Z,81.81
2022-12-11T21:33:36.375Z,81.99
2022-12-11T21:36:06.744Z,81.85
2022-12-11T21:38:33.945Z,81.19
2022-12-11T21:41:12.001Z,81.55
2022-12-11T21:43:59.593Z,81.82
2022-12-11T21:46:28.388Z,81.65
2022-12-11T21:48:55.413Z,81.47
2022-12-11T21:51:40.259Z,82.12
2022-12-11T21:54:12.893Z,80.96
2022-12-11T21:56:40.555Z,81.56
2022-12-11T21:59:07.913Z,81.36
2022-12-11T22:01:38.280Z,81.02
2022-12-11T22:04:07.486Z,81.12
2022-12-11T22:06:34.397Z,81.30
2022-12-11T22:09:01.326Z,81.17
2022-12-11T22:11:32.466Z,81.20
2022-12-11T22:13:59.843Z,80.78
2022-12-11T22:16:26.818Z,81.00
2022-12-11T22:18:53.730Z,81.95
2022-12-11T22:21:20.934Z,81.94
2022-12-11T22:23:47.772Z,82.08
2022-12-11T22:26:21.847Z,82.04
2022-12-11T22:28:49.248Z,82.17
2022-12-11T22:31:19.042Z,82.18
2022-12-11T22:33:46.358Z,82.77
2022-12-11T22:36:13.188Z,81.94
2022-12-11T22:38:40.149Z,82.35
2022-12-11T22:41:20.467Z,82.34
2022-12-11T22:43:49.072Z,82.69
2022-12-11T22:46:17.244Z,81.56
2022-12-11T22:48:44.110Z,82.27
2022-12-11T22:51:11.978Z,81.93
2022-12-11T22:53:39.102Z,82.05
2022-12-11T22:56:07.751Z,82.32
2022-12-11T22:58:34.824Z,82.37
2022-12-11T23:01:02.830Z,82.98
2022-12-11T23:03:29.696Z,82.68
2022-12-11T23:05:58.794Z,82.23
2022-12-11T23:08:29.069Z,82.66
2022-12-11T23:10:56.146Z,82.71
2022-12-11T23:13:22.902Z,82.88
2022-12-11T23:15:49.761Z,83.85
2022-12-11T23:18:16.487Z,84.19
2022-12-11T23:20:45.425Z,84.36
2022-12-11T23:23:12.371Z,84.05
2022-12-11T23:25:39.225Z,84.31
2022-12-11T23:28:06.235Z,84.50
2022-12-11T23:30:33.058Z,83.94
2022-12-11T23:32:59.862Z,83.85
2022-12-11T23:35:26.719Z,83.92
2022-12-11T23:37:53.496Z,83.17
2022-12-11T23:40:20.290Z,83.03
2022-12-11T23:42:47.155Z,82.37
2022-12-11T23:45:14.313Z,83.59
2022-12-11T23:47:41.395Z,82.53
2022-12-11T23:50:08.677Z,82.15
2022-12-11T23:52:35.694Z,82.21
2022-12-11T23:55:02.526Z,82.01
2022-12-11T23:57:29.477Z,81.53
2022-12-11T23:59:56.217Z,82.16
